sensor_id;sensor_type;location;lat;lon;timestamp;P1;durP1;ratioP1;P2;durP2;ratioP2
62052;SDS011;48300;52.902;6.534;2024-02-26T00:00:38;14.10;;;7.40;;
62052;SDS011;48300;52.902;6.534;2024-02-26T00:03:05;13.98;;;7.57;;
62052;SDS011;48300;52.902;6.534;2024-02-26T00:05:31;12.35;;;7.47;;
62052;SDS011;48300;52.902;6.534;2024-02-26T00:07:57;15.25;;;7.95;;
62052;SDS011;48300;52.902;6.534;2024-02-26T00:10:23;15.25;;;7.10;;
62052;SDS011;48300;52.902;6.534;2024-02-26T00:12:49;16.67;;;8.02;;
62052;SDS011;48300;52.902;6.534;2024-02-26T00:15:15;14.90;;;7.63;;
62052;SDS011;48300;52.902;6.534;2024-02-26T00:17:41;13.77;;;7.78;;
62052;SDS011;48300;52.902;6.534;2024-02-26T00:20:07;13.68;;;7.40;;
62052;SDS011;48300;52.902;6.534;2024-02-26T00:22:34;14.57;;;7.85;;
62052;SDS011;48300;52.902;6.534;2024-02-26T00:25:00;15.43;;;8.77;;
62052;SDS011;48300;52.902;6.534;2024-02-26T00:27:26;16.02;;;7.57;;
62052;SDS011;48300;52.902;6.534;2024-02-26T00:29:52;14.32;;;8.32;;
62052;SDS011;48300;52.902;6.534;2024-02-26T00:32:18;15.93;;;8.35;;
62052;SDS011;48300;52.902;6.534;2024-02-26T00:34:44;13.35;;;7.78;;
62052;SDS011;48300;52.902;6.534;2024-02-26T00:37:10;16.02;;;8.27;;
62052;SDS011;48300;52.902;6.534;2024-02-26T00:39:36;15.32;;;8.35;;
62052;SDS011;48300;52.902;6.534;2024-02-26T00:42:02;15.43;;;8.73;;
62052;SDS011;48300;52.902;6.534;2024-02-26T00:44:28;19.20;;;8.38;;
62052;SDS011;48300;52.902;6.534;2024-02-26T00:46:54;17.98;;;9.40;;
62052;SDS011;48300;52.902;6.534;2024-02-26T00:49:20;17.08;;;8.07;;
62052;SDS011;48300;52.902;6.534;2024-02-26T00:51:46;17.90;;;8.98;;
62052;SDS011;48300;52.902;6.534;2024-02-26T00:54:12;16.95;;;8.80;;
62052;SDS011;48300;52.902;6.534;2024-02-26T00:56:38;17.92;;;9.10;;
62052;SDS011;48300;52.902;6.534;2024-02-26T00:59:04;17.52;;;9.02;;
62052;SDS011;48300;52.902;6.534;2024-02-26T01:01:31;19.90;;;9.43;;
62052;SDS011;48300;52.902;6.534;2024-02-26T01:03:57;18.08;;;8.18;;
62052;SDS011;48300;52.902;6.534;2024-02-26T01:06:23;16.13;;;7.97;;
62052;SDS011;48300;52.902;6.534;2024-02-26T01:08:49;18.17;;;8.05;;
62052;SDS011;48300;52.902;6.534;2024-02-26T01:11:15;18.55;;;9.30;;
62052;SDS011;48300;52.902;6.534;2024-02-26T01:13:41;17.85;;;9.20;;
62052;SDS011;48300;52.902;6.534;2024-02-26T01:16:07;16.83;;;8.60;;
62052;SDS011;48300;52.902;6.534;2024-02-26T01:18:33;15.38;;;8.35;;
62052;SDS011;48300;52.902;6.534;2024-02-26T01:20:59;17.52;;;8.70;;
62052;SDS011;48300;52.902;6.534;2024-02-26T01:23:25;16.90;;;9.32;;
62052;SDS011;48300;52.902;6.534;2024-02-26T01:25:51;17.23;;;8.63;;
62052;SDS011;48300;52.902;6.534;2024-02-26T01:28:17;17.40;;;9.18;;
62052;SDS011;48300;52.902;6.534;2024-02-26T01:30:43;16.85;;;9.18;;
62052;SDS011;48300;52.902;6.534;2024-02-26T01:33:09;18.00;;;8.90;;
62052;SDS011;48300;52.902;6.534;2024-02-26T01:35:35;19.67;;;9.45;;
62052;SDS011;48300;52.902;6.534;2024-02-26T01:38:01;22.70;;;8.82;;
62052;SDS011;48300;52.902;6.534;2024-02-26T01:40:27;17.67;;;8.80;;
62052;SDS011;48300;52.902;6.534;2024-02-26T01:42:53;18.30;;;9.15;;
62052;SDS011;48300;52.902;6.534;2024-02-26T01:45:19;19.55;;;8.80;;
62052;SDS011;48300;52.902;6.534;2024-02-26T01:47:50;26.02;;;10.65;;
62052;SDS011;48300;52.902;6.534;2024-02-26T01:50:16;18.38;;;8.90;;
62052;SDS011;48300;52.902;6.534;2024-02-26T01:52:43;20.55;;;10.45;;
62052;SDS011;48300;52.902;6.534;2024-02-26T01:55:09;18.33;;;8.85;;
62052;SDS011;48300;52.902;6.534;2024-02-26T01:57:35;21.95;;;10.05;;
62052;SDS011;48300;52.902;6.534;2024-02-26T02:00:01;20.20;;;10.02;;
62052;SDS011;48300;52.902;6.534;2024-02-26T02:02:30;22.90;;;10.45;;
62052;SDS011;48300;52.902;6.534;2024-02-26T02:04:57;19.85;;;9.60;;
62052;SDS011;48300;52.902;6.534;2024-02-26T02:07:23;23.13;;;10.55;;
62052;SDS011;48300;52.902;6.534;2024-02-26T02:09:50;23.50;;;10.98;;
62052;SDS011;48300;52.902;6.534;2024-02-26T02:12:16;20.63;;;10.52;;
62052;SDS011;48300;52.902;6.534;2024-02-26T02:14:42;23.45;;;10.73;;
62052;SDS011;48300;52.902;6.534;2024-02-26T02:17:08;25.05;;;10.80;;
62052;SDS011;48300;52.902;6.534;2024-02-26T02:19:34;23.55;;;11.52;;
62052;SDS011;48300;52.902;6.534;2024-02-26T02:22:00;24.50;;;11.60;;
62052;SDS011;48300;52.902;6.534;2024-02-26T02:24:26;25.73;;;12.38;;
62052;SDS011;48300;52.902;6.534;2024-02-26T02:26:52;25.50;;;12.88;;
62052;SDS011;48300;52.902;6.534;2024-02-26T02:29:18;27.30;;;12.48;;
62052;SDS011;48300;52.902;6.534;2024-02-26T02:31:44;25.95;;;12.50;;
62052;SDS011;48300;52.902;6.534;2024-02-26T02:34:10;26.05;;;12.27;;
62052;SDS011;48300;52.902;6.534;2024-02-26T02:36:47;28.55;;;13.20;;
62052;SDS011;48300;52.902;6.534;2024-02-26T02:39:14;31.92;;;13.10;;
62052;SDS011;48300;52.902;6.534;2024-02-26T02:41:41;25.75;;;13.00;;
62052;SDS011;48300;52.902;6.534;2024-02-26T02:44:07;27.33;;;13.85;;
62052;SDS011;48300;52.902;6.534;2024-02-26T02:46:33;25.73;;;12.77;;
62052;SDS011;48300;52.902;6.534;2024-02-26T02:49:00;27.17;;;13.35;;
62052;SDS011;48300;52.902;6.534;2024-02-26T02:51:26;25.50;;;12.65;;
62052;SDS011;48300;52.902;6.534;2024-02-26T02:53:52;26.42;;;12.25;;
62052;SDS011;48300;52.902;6.534;2024-02-26T02:56:18;31.13;;;14.50;;
62052;SDS011;48300;52.902;6.534;2024-02-26T02:58:44;28.63;;;13.73;;
62052;SDS011;48300;52.902;6.534;2024-02-26T03:01:10;29.60;;;14.50;;
62052;SDS011;48300;52.902;6.534;2024-02-26T03:03:36;27.73;;;12.30;;
62052;SDS011;48300;52.902;6.534;2024-02-26T03:06:02;29.27;;;14.18;;
62052;SDS011;48300;52.902;6.534;2024-02-26T03:08:28;27.33;;;13.60;;
62052;SDS011;48300;52.902;6.534;2024-02-26T03:10:54;24.38;;;13.40;;
62052;SDS011;48300;52.902;6.534;2024-02-26T03:13:20;28.08;;;13.48;;
62052;SDS011;48300;52.902;6.534;2024-02-26T03:15:46;26.88;;;13.90;;
62052;SDS011;48300;52.902;6.534;2024-02-26T03:18:12;29.10;;;13.75;;
62052;SDS011;48300;52.902;6.534;2024-02-26T03:20:38;26.88;;;13.13;;
62052;SDS011;48300;52.902;6.534;2024-02-26T03:23:04;24.92;;;13.90;;
62052;SDS011;48300;52.902;6.534;2024-02-26T03:25:30;30.00;;;13.70;;
62052;SDS011;48300;52.902;6.534;2024-02-26T03:27:56;22.80;;;12.95;;
62052;SDS011;48300;52.902;6.534;2024-02-26T03:30:22;26.27;;;13.85;;
62052;SDS011;48300;52.902;6.534;2024-02-26T03:32:48;26.73;;;13.48;;
62052;SDS011;48300;52.902;6.534;2024-02-26T03:35:14;27.55;;;13.68;;
62052;SDS011;48300;52.902;6.534;2024-02-26T03:37:40;24.33;;;12.27;;
62052;SDS011;48300;52.902;6.534;2024-02-26T03:40:07;26.75;;;13.60;;
62052;SDS011;48300;52.902;6.534;2024-02-26T03:42:33;24.70;;;11.15;;
62052;SDS011;48300;52.902;6.534;2024-02-26T03:44:59;20.75;;;11.27;;
62052;SDS011;48300;52.902;6.534;2024-02-26T03:47:25;20.95;;;10.82;;
62052;SDS011;48300;52.902;6.534;2024-02-26T03:49:51;23.95;;;10.70;;
62052;SDS011;48300;52.902;6.534;2024-02-26T03:52:17;18.65;;;10.73;;
62052;SDS011;48300;52.902;6.534;2024-02-26T03:54:43;19.35;;;10.45;;
62052;SDS011;48300;52.902;6.534;2024-02-26T03:57:09;17.83;;;9.65;;
62052;SDS011;48300;52.902;6.534;2024-02-26T03:59:35;19.65;;;9.98;;
62052;SDS011;48300;52.902;6.534;2024-02-26T04:02:01;19.27;;;10.63;;
62052;SDS011;48300;52.902;6.534;2024-02-26T04:04:27;18.27;;;9.88;;
62052;SDS011;48300;52.902;6.534;2024-02-26T04:06:53;18.17;;;9.85;;
62052;SDS011;48300;52.902;6.534;2024-02-26T04:09:19;18.77;;;9.35;;
62052;SDS011;48300;52.902;6.534;2024-02-26T04:11:45;16.55;;;9.85;;
62052;SDS011;48300;52.902;6.534;2024-02-26T04:14:11;21.02;;;10.30;;
62052;SDS011;48300;52.902;6.534;2024-02-26T04:16:37;17.40;;;9.43;;
62052;SDS011;48300;52.902;6.534;2024-02-26T04:19:04;16.27;;;8.60;;
62052;SDS011;48300;52.902;6.534;2024-02-26T04:21:30;16.38;;;7.90;;
62052;SDS011;48300;52.902;6.534;2024-02-26T04:23:56;15.40;;;8.68;;
62052;SDS011;48300;52.902;6.534;2024-02-26T04:26:25;17.70;;;9.73;;
62052;SDS011;48300;52.902;6.534;2024-02-26T04:28:51;17.23;;;8.40;;
62052;SDS011;48300;52.902;6.534;2024-02-26T04:31:18;15.70;;;8.63;;
62052;SDS011;48300;52.902;6.534;2024-02-26T04:33:44;15.50;;;8.82;;
62052;SDS011;48300;52.902;6.534;2024-02-26T04:36:13;13.60;;;8.25;;
62052;SDS011;48300;52.902;6.534;2024-02-26T04:38:43;13.75;;;7.78;;
62052;SDS011;48300;52.902;6.534;2024-02-26T04:41:09;13.23;;;7.75;;
62052;SDS011;48300;52.902;6.534;2024-02-26T04:43:36;13.63;;;7.35;;
62052;SDS011;48300;52.902;6.534;2024-02-26T04:46:06;13.38;;;7.88;;
62052;SDS011;48300;52.902;6.534;2024-02-26T04:48:33;11.55;;;6.55;;
62052;SDS011;48300;52.902;6.534;2024-02-26T04:50:59;14.40;;;6.80;;
62052;SDS011;48300;52.902;6.534;2024-02-26T04:53:25;11.90;;;6.57;;
62052;SDS011;48300;52.902;6.534;2024-02-26T04:55:51;12.50;;;6.53;;
62052;SDS011;48300;52.902;6.534;2024-02-26T04:58:17;11.10;;;6.55;;
62052;SDS011;48300;52.902;6.534;2024-02-26T05:00:43;10.43;;;5.65;;
62052;SDS011;48300;52.902;6.534;2024-02-26T05:03:09;12.30;;;6.32;;
62052;SDS011;48300;52.902;6.534;2024-02-26T05:05:40;11.93;;;5.80;;
62052;SDS011;48300;52.902;6.534;2024-02-26T05:08:06;10.45;;;5.10;;
62052;SDS011;48300;52.902;6.534;2024-02-26T05:10:32;9.20;;;5.70;;
62052;SDS011;48300;52.902;6.534;2024-02-26T05:12:58;12.52;;;4.85;;
62052;SDS011;48300;52.902;6.534;2024-02-26T05:15:24;11.98;;;5.75;;
62052;SDS011;48300;52.902;6.534;2024-02-26T05:17:50;11.88;;;5.88;;
62052;SDS011;48300;52.902;6.534;2024-02-26T05:20:17;17.55;;;6.78;;
62052;SDS011;48300;52.902;6.534;2024-02-26T05:22:43;10.20;;;5.63;;
62052;SDS011;48300;52.902;6.534;2024-02-26T05:25:09;13.65;;;5.43;;
62052;SDS011;48300;52.902;6.534;2024-02-26T05:27:35;11.18;;;6.15;;
62052;SDS011;48300;52.902;6.534;2024-02-26T05:30:01;11.68;;;5.65;;
62052;SDS011;48300;52.902;6.534;2024-02-26T05:32:28;8.57;;;5.10;;
62052;SDS011;48300;52.902;6.534;2024-02-26T05:34:55;10.15;;;5.75;;
62052;SDS011;48300;52.902;6.534;2024-02-26T05:37:21;10.30;;;4.75;;
62052;SDS011;48300;52.902;6.534;2024-02-26T05:39:47;8.20;;;4.55;;
62052;SDS011;48300;52.902;6.534;2024-02-26T05:42:13;10.63;;;5.40;;
62052;SDS011;48300;52.902;6.534;2024-02-26T05:44:39;11.43;;;4.60;;
62052;SDS011;48300;52.902;6.534;2024-02-26T05:47:05;8.40;;;4.43;;
62052;SDS011;48300;52.902;6.534;2024-02-26T05:49:31;7.60;;;4.63;;
62052;SDS011;48300;52.902;6.534;2024-02-26T05:51:58;10.57;;;4.70;;
62052;SDS011;48300;52.902;6.534;2024-02-26T05:54:24;7.68;;;4.00;;
62052;SDS011;48300;52.902;6.534;2024-02-26T05:56:50;9.25;;;4.00;;
62052;SDS011;48300;52.902;6.534;2024-02-26T05:59:16;7.18;;;3.80;;
62052;SDS011;48300;52.902;6.534;2024-02-26T06:01:43;7.20;;;3.53;;
62052;SDS011;48300;52.902;6.534;2024-02-26T06:04:09;9.40;;;4.22;;
62052;SDS011;48300;52.902;6.534;2024-02-26T06:06:34;7.88;;;3.67;;
62052;SDS011;48300;52.902;6.534;2024-02-26T06:09:00;8.68;;;3.50;;
62052;SDS011;48300;52.902;6.534;2024-02-26T06:11:26;8.70;;;3.70;;
62052;SDS011;48300;52.902;6.534;2024-02-26T06:13:53;9.80;;;4.38;;
62052;SDS011;48300;52.902;6.534;2024-02-26T06:16:19;6.63;;;2.95;;
62052;SDS011;48300;52.902;6.534;2024-02-26T06:18:45;6.40;;;3.63;;
62052;SDS011;48300;52.902;6.534;2024-02-26T06:21:11;9.30;;;3.83;;
62052;SDS011;48300;52.902;6.534;2024-02-26T06:23:40;8.38;;;3.20;;
62052;SDS011;48300;52.902;6.534;2024-02-26T06:28:31;6.10;;;3.33;;
62052;SDS011;48300;52.902;6.534;2024-02-26T06:30:59;7.53;;;3.40;;
62052;SDS011;48300;52.902;6.534;2024-02-26T06:33:25;5.47;;;2.78;;
62052;SDS011;48300;52.902;6.534;2024-02-26T06:35:51;9.63;;;3.15;;
62052;SDS011;48300;52.902;6.534;2024-02-26T06:38:17;4.65;;;2.70;;
62052;SDS011;48300;52.902;6.534;2024-02-26T06:40:43;11.93;;;2.78;;
62052;SDS011;48300;52.902;6.534;2024-02-26T06:43:10;5.18;;;3.03;;
62052;SDS011;48300;52.902;6.534;2024-02-26T06:45:36;8.02;;;4.18;;
62052;SDS011;48300;52.902;6.534;2024-02-26T06:48:02;5.68;;;3.40;;
62052;SDS011;48300;52.902;6.534;2024-02-26T06:50:28;6.40;;;3.78;;
62052;SDS011;48300;52.902;6.534;2024-02-26T06:52:54;7.57;;;3.38;;
62052;SDS011;48300;52.902;6.534;2024-02-26T06:55:19;7.28;;;3.78;;
62052;SDS011;48300;52.902;6.534;2024-02-26T06:57:45;6.03;;;3.72;;
62052;SDS011;48300;52.902;6.534;2024-02-26T07:00:12;5.85;;;3.42;;
62052;SDS011;48300;52.902;6.534;2024-02-26T07:02:40;8.90;;;4.20;;
62052;SDS011;48300;52.902;6.534;2024-02-26T07:05:06;7.78;;;3.80;;
62052;SDS011;48300;52.902;6.534;2024-02-26T07:07:32;7.28;;;4.15;;
62052;SDS011;48300;52.902;6.534;2024-02-26T07:09:58;7.63;;;3.53;;
62052;SDS011;48300;52.902;6.534;2024-02-26T07:12:25;6.80;;;3.65;;
62052;SDS011;48300;52.902;6.534;2024-02-26T07:14:51;11.65;;;5.53;;
62052;SDS011;48300;52.902;6.534;2024-02-26T07:17:17;11.02;;;3.95;;
62052;SDS011;48300;52.902;6.534;2024-02-26T07:19:43;7.93;;;4.80;;
62052;SDS011;48300;52.902;6.534;2024-02-26T07:22:09;9.70;;;4.72;;
62052;SDS011;48300;52.902;6.534;2024-02-26T07:24:35;6.47;;;3.75;;
62052;SDS011;48300;52.902;6.534;2024-02-26T07:27:01;5.72;;;3.28;;
62052;SDS011;48300;52.902;6.534;2024-02-26T07:29:27;6.65;;;3.83;;
62052;SDS011;48300;52.902;6.534;2024-02-26T07:31:53;11.70;;;4.60;;
62052;SDS011;48300;52.902;6.534;2024-02-26T07:34:19;7.75;;;3.55;;
62052;SDS011;48300;52.902;6.534;2024-02-26T07:36:45;6.70;;;3.13;;
62052;SDS011;48300;52.902;6.534;2024-02-26T07:39:11;4.82;;;3.10;;
62052;SDS011;48300;52.902;6.534;2024-02-26T07:41:37;5.45;;;3.40;;
62052;SDS011;48300;52.902;6.534;2024-02-26T07:44:04;10.70;;;4.18;;
62052;SDS011;48300;52.902;6.534;2024-02-26T07:46:30;9.07;;;4.60;;
62052;SDS011;48300;52.902;6.534;2024-02-26T07:48:56;6.47;;;3.60;;
62052;SDS011;48300;52.902;6.534;2024-02-26T07:51:22;5.50;;;2.92;;
62052;SDS011;48300;52.902;6.534;2024-02-26T07:53:48;6.07;;;3.38;;
62052;SDS011;48300;52.902;6.534;2024-02-26T07:56:14;7.22;;;3.50;;
62052;SDS011;48300;52.902;6.534;2024-02-26T07:58:40;7.38;;;4.82;;
62052;SDS011;48300;52.902;6.534;2024-02-26T08:01:06;7.00;;;3.28;;
62052;SDS011;48300;52.902;6.534;2024-02-26T08:03:32;6.80;;;3.50;;
62052;SDS011;48300;52.902;6.534;2024-02-26T08:05:58;8.15;;;3.63;;
62052;SDS011;48300;52.902;6.534;2024-02-26T08:08:24;5.45;;;3.15;;
62052;SDS011;48300;52.902;6.534;2024-02-26T08:10:50;5.53;;;3.17;;
62052;SDS011;48300;52.902;6.534;2024-02-26T08:13:16;6.32;;;2.95;;
62052;SDS011;48300;52.902;6.534;2024-02-26T08:15:42;5.57;;;3.10;;
62052;SDS011;48300;52.902;6.534;2024-02-26T08:18:08;7.30;;;3.30;;
62052;SDS011;48300;52.902;6.534;2024-02-26T08:20:34;7.30;;;3.63;;
62052;SDS011;48300;52.902;6.534;2024-02-26T08:23:00;6.13;;;3.03;;
62052;SDS011;48300;52.902;6.534;2024-02-26T08:25:26;4.95;;;3.35;;
62052;SDS011;48300;52.902;6.534;2024-02-26T08:27:52;5.28;;;3.25;;
62052;SDS011;48300;52.902;6.534;2024-02-26T08:30:18;6.50;;;3.45;;
62052;SDS011;48300;52.902;6.534;2024-02-26T08:32:44;7.43;;;3.17;;
62052;SDS011;48300;52.902;6.534;2024-02-26T08:35:10;5.97;;;3.63;;
62052;SDS011;48300;52.902;6.534;2024-02-26T08:37:36;12.73;;;6.63;;
62052;SDS011;48300;52.902;6.534;2024-02-26T08:40:03;4.88;;;3.38;;
62052;SDS011;48300;52.902;6.534;2024-02-26T08:42:29;6.57;;;3.92;;
62052;SDS011;48300;52.902;6.534;2024-02-26T08:44:55;6.90;;;3.65;;
62052;SDS011;48300;52.902;6.534;2024-02-26T08:47:21;6.50;;;3.60;;
62052;SDS011;48300;52.902;6.534;2024-02-26T08:49:48;5.97;;;3.42;;
62052;SDS011;48300;52.902;6.534;2024-02-26T08:54:42;6.28;;;3.35;;
62052;SDS011;48300;52.902;6.534;2024-02-26T08:57:08;7.80;;;4.80;;
62052;SDS011;48300;52.902;6.534;2024-02-26T08:59:34;6.35;;;3.92;;
62052;SDS011;48300;52.902;6.534;2024-02-26T09:02:00;8.23;;;3.60;;
62052;SDS011;48300;52.902;6.534;2024-02-26T09:04:26;6.15;;;3.58;;
62052;SDS011;48300;52.902;6.534;2024-02-26T09:06:52;7.75;;;3.75;;
62052;SDS011;48300;52.902;6.534;2024-02-26T09:09:19;5.95;;;3.33;;
62052;SDS011;48300;52.902;6.534;2024-02-26T09:11:47;8.30;;;3.55;;
62052;SDS011;48300;52.902;6.534;2024-02-26T09:14:13;7.18;;;4.10;;
62052;SDS011;48300;52.902;6.534;2024-02-26T09:16:39;6.72;;;3.50;;
62052;SDS011;48300;52.902;6.534;2024-02-26T09:19:05;7.75;;;3.60;;
62052;SDS011;48300;52.902;6.534;2024-02-26T09:21:31;5.68;;;3.50;;
62052;SDS011;48300;52.902;6.534;2024-02-26T09:23:58;6.78;;;3.55;;
62052;SDS011;48300;52.902;6.534;2024-02-26T09:26:24;6.20;;;3.38;;
62052;SDS011;48300;52.902;6.534;2024-02-26T09:28:50;5.85;;;3.50;;
62052;SDS011;48300;52.902;6.534;2024-02-26T09:31:17;7.45;;;3.63;;
62052;SDS011;48300;52.902;6.534;2024-02-26T09:33:43;7.18;;;4.07;;
62052;SDS011;48300;52.902;6.534;2024-02-26T09:36:09;5.60;;;3.63;;
62052;SDS011;48300;52.902;6.534;2024-02-26T09:38:36;7.45;;;4.00;;
62052;SDS011;48300;52.902;6.534;2024-02-26T09:41:06;6.70;;;3.30;;
62052;SDS011;48300;52.902;6.534;2024-02-26T09:43:35;6.78;;;3.70;;
62052;SDS011;48300;52.902;6.534;2024-02-26T09:46:01;6.10;;;3.80;;
62052;SDS011;48300;52.902;6.534;2024-02-26T09:48:28;5.80;;;3.47;;
62052;SDS011;48300;52.902;6.534;2024-02-26T09:50:54;7.32;;;3.50;;
62052;SDS011;48300;52.902;6.534;2024-02-26T09:53:20;7.45;;;3.88;;
62052;SDS011;48300;52.902;6.534;2024-02-26T09:55:47;8.60;;;3.50;;
62052;SDS011;48300;52.902;6.534;2024-02-26T09:58:13;5.47;;;3.17;;
62052;SDS011;48300;52.902;6.534;2024-02-26T10:00:43;8.00;;;4.10;;
62052;SDS011;48300;52.902;6.534;2024-02-26T10:03:13;7.10;;;3.35;;
62052;SDS011;48300;52.902;6.534;2024-02-26T10:05:40;10.13;;;3.88;;
62052;SDS011;48300;52.902;6.534;2024-02-26T10:08:08;6.38;;;3.67;;
62052;SDS011;48300;52.902;6.534;2024-02-26T10:10:34;7.45;;;4.00;;
62052;SDS011;48300;52.902;6.534;2024-02-26T10:13:01;7.78;;;3.83;;
62052;SDS011;48300;52.902;6.534;2024-02-26T10:15:27;5.70;;;3.40;;
62052;SDS011;48300;52.902;6.534;2024-02-26T10:17:53;10.65;;;4.05;;
62052;SDS011;48300;52.902;6.534;2024-02-26T10:20:19;6.22;;;3.72;;
62052;SDS011;48300;52.902;6.534;2024-02-26T10:22:49;7.45;;;3.92;;
62052;SDS011;48300;52.902;6.534;2024-02-26T10:25:17;6.47;;;3.90;;
62052;SDS011;48300;52.902;6.534;2024-02-26T10:27:44;7.70;;;3.65;;
62052;SDS011;48300;52.902;6.534;2024-02-26T10:30:17;7.55;;;3.72;;
62052;SDS011;48300;52.902;6.534;2024-02-26T10:32:44;6.57;;;3.60;;
62052;SDS011;48300;52.902;6.534;2024-02-26T10:35:11;5.97;;;3.50;;
62052;SDS011;48300;52.902;6.534;2024-02-26T10:37:38;6.43;;;3.65;;
62052;SDS011;48300;52.902;6.534;2024-02-26T10:40:04;6.43;;;3.65;;
62052;SDS011;48300;52.902;6.534;2024-02-26T10:42:31;5.35;;;2.88;;
62052;SDS011;48300;52.902;6.534;2024-02-26T10:44:57;7.90;;;3.28;;
62052;SDS011;48300;52.902;6.534;2024-02-26T10:47:23;6.47;;;3.42;;
62052;SDS011;48300;52.902;6.534;2024-02-26T10:49:50;5.38;;;3.25;;
62052;SDS011;48300;52.902;6.534;2024-02-26T10:52:16;10.02;;;3.53;;
62052;SDS011;48300;52.902;6.534;2024-02-26T10:54:45;8.10;;;3.90;;
62052;SDS011;48300;52.902;6.534;2024-02-26T10:57:13;5.32;;;3.00;;
62052;SDS011;48300;52.902;6.534;2024-02-26T10:59:39;5.28;;;3.22;;
62052;SDS011;48300;52.902;6.534;2024-02-26T11:02:08;7.85;;;3.35;;
62052;SDS011;48300;52.902;6.534;2024-02-26T11:04:34;6.30;;;3.45;;
62052;SDS011;48300;52.902;6.534;2024-02-26T11:07:01;6.13;;;3.28;;
62052;SDS011;48300;52.902;6.534;2024-02-26T11:09:27;7.45;;;3.45;;
62052;SDS011;48300;52.902;6.534;2024-02-26T11:11:53;5.55;;;3.15;;
62052;SDS011;48300;52.902;6.534;2024-02-26T11:14:20;6.78;;;2.95;;
62052;SDS011;48300;52.902;6.534;2024-02-26T11:16:47;5.55;;;3.00;;
62052;SDS011;48300;52.902;6.534;2024-02-26T11:19:13;4.50;;;2.97;;
62052;SDS011;48300;52.902;6.534;2024-02-26T11:21:39;5.82;;;2.67;;
62052;SDS011;48300;52.902;6.534;2024-02-26T11:24:07;6.32;;;3.22;;
62052;SDS011;48300;52.902;6.534;2024-02-26T11:26:38;4.85;;;2.83;;
62052;SDS011;48300;52.902;6.534;2024-02-26T11:29:07;9.10;;;3.00;;
62052;SDS011;48300;52.902;6.534;2024-02-26T11:31:35;5.10;;;3.00;;
62052;SDS011;48300;52.902;6.534;2024-02-26T11:34:02;4.22;;;2.20;;
62052;SDS011;48300;52.902;6.534;2024-02-26T11:36:28;4.32;;;2.58;;
62052;SDS011;48300;52.902;6.534;2024-02-26T11:38:55;5.30;;;2.78;;
62052;SDS011;48300;52.902;6.534;2024-02-26T11:41:22;7.10;;;3.10;;
62052;SDS011;48300;52.902;6.534;2024-02-26T11:43:57;6.80;;;2.70;;
62052;SDS011;48300;52.902;6.534;2024-02-26T11:48:53;4.40;;;2.42;;
62052;SDS011;48300;52.902;6.534;2024-02-26T11:51:24;4.97;;;2.35;;
62052;SDS011;48300;52.902;6.534;2024-02-26T11:53:51;4.93;;;2.72;;
62052;SDS011;48300;52.902;6.534;2024-02-26T11:58:46;6.25;;;4.13;;
62052;SDS011;48300;52.902;6.534;2024-02-26T12:03:59;7.00;;;2.17;;
62052;SDS011;48300;52.902;6.534;2024-02-26T12:06:27;3.72;;;2.28;;
62052;SDS011;48300;52.902;6.534;2024-02-26T12:08:53;26.83;;;11.15;;
62052;SDS011;48300;52.902;6.534;2024-02-26T12:11:20;7.63;;;3.25;;
62052;SDS011;48300;52.902;6.534;2024-02-26T12:13:48;5.72;;;3.30;;
62052;SDS011;48300;52.902;6.534;2024-02-26T12:16:34;7.78;;;3.15;;
62052;SDS011;48300;52.902;6.534;2024-02-26T12:19:00;5.20;;;2.55;;
62052;SDS011;48300;52.902;6.534;2024-02-26T12:21:27;6.10;;;3.00;;
62052;SDS011;48300;52.902;6.534;2024-02-26T12:23:53;4.00;;;2.22;;
62052;SDS011;48300;52.902;6.534;2024-02-26T12:26:19;3.95;;;2.40;;
62052;SDS011;48300;52.902;6.534;2024-02-26T12:28:46;5.28;;;2.90;;
62052;SDS011;48300;52.902;6.534;2024-02-26T12:31:12;4.40;;;2.75;;
62052;SDS011;48300;52.902;6.534;2024-02-26T12:33:39;5.10;;;2.83;;
62052;SDS011;48300;52.902;6.534;2024-02-26T12:36:05;7.28;;;3.78;;
62052;SDS011;48300;52.902;6.534;2024-02-26T12:38:31;6.75;;;3.85;;
62052;SDS011;48300;52.902;6.534;2024-02-26T12:40:57;7.90;;;4.70;;
62052;SDS011;48300;52.902;6.534;2024-02-26T12:43:23;7.55;;;4.55;;
62052;SDS011;48300;52.902;6.534;2024-02-26T12:45:49;5.45;;;2.83;;
62052;SDS011;48300;52.902;6.534;2024-02-26T12:48:15;22.48;;;13.68;;
62052;SDS011;48300;52.902;6.534;2024-02-26T12:50:47;20.00;;;12.57;;
62052;SDS011;48300;52.902;6.534;2024-02-26T12:53:13;24.25;;;18.77;;
62052;SDS011;48300;52.902;6.534;2024-02-26T12:55:40;12.45;;;9.68;;
62052;SDS011;48300;52.902;6.534;2024-02-26T12:58:07;9.73;;;7.10;;
62052;SDS011;48300;52.902;6.534;2024-02-26T13:00:33;9.48;;;4.65;;
62052;SDS011;48300;52.902;6.534;2024-02-26T13:02:59;8.98;;;4.40;;
62052;SDS011;48300;52.902;6.534;2024-02-26T13:05:26;8.23;;;4.30;;
62052;SDS011;48300;52.902;6.534;2024-02-26T13:07:52;7.90;;;4.10;;
62052;SDS011;48300;52.902;6.534;2024-02-26T13:10:18;6.75;;;3.20;;
62052;SDS011;48300;52.902;6.534;2024-02-26T13:12:48;8.02;;;4.20;;
62052;SDS011;48300;52.902;6.534;2024-02-26T13:15:21;9.18;;;4.35;;
62052;SDS011;48300;52.902;6.534;2024-02-26T13:17:48;8.05;;;3.78;;
62052;SDS011;48300;52.902;6.534;2024-02-26T13:20:24;6.85;;;3.92;;
62052;SDS011;48300;52.902;6.534;2024-02-26T13:22:51;8.88;;;3.95;;
62052;SDS011;48300;52.902;6.534;2024-02-26T13:25:20;6.93;;;4.15;;
62052;SDS011;48300;52.902;6.534;2024-02-26T13:27:46;8.65;;;3.95;;
62052;SDS011;48300;52.902;6.534;2024-02-26T13:30:12;7.57;;;4.18;;
62052;SDS011;48300;52.902;6.534;2024-02-26T13:32:39;10.10;;;4.75;;
62052;SDS011;48300;52.902;6.534;2024-02-26T13:35:08;6.72;;;4.47;;
62052;SDS011;48300;52.902;6.534;2024-02-26T13:37:35;7.53;;;4.28;;
62052;SDS011;48300;52.902;6.534;2024-02-26T13:40:05;10.88;;;4.53;;
62052;SDS011;48300;52.902;6.534;2024-02-26T13:42:31;11.02;;;5.72;;
62052;SDS011;48300;52.902;6.534;2024-02-26T13:44:57;14.35;;;7.85;;
62052;SDS011;48300;52.902;6.534;2024-02-26T13:47:23;14.50;;;6.97;;
62052;SDS011;48300;52.902;6.534;2024-02-26T13:49:49;13.95;;;7.75;;
62052;SDS011;48300;52.902;6.534;2024-02-26T13:52:14;13.77;;;6.88;;
62052;SDS011;48300;52.902;6.534;2024-02-26T13:54:40;10.57;;;7.10;;
62052;SDS011;48300;52.902;6.534;2024-02-26T13:57:07;10.63;;;5.80;;
62052;SDS011;48300;52.902;6.534;2024-02-26T13:59:34;11.70;;;7.03;;
62052;SDS011;48300;52.902;6.534;2024-02-26T14:02:00;9.73;;;5.55;;
62052;SDS011;48300;52.902;6.534;2024-02-26T14:04:26;8.77;;;5.85;;
62052;SDS011;48300;52.902;6.534;2024-02-26T14:06:52;12.10;;;6.97;;
62052;SDS011;48300;52.902;6.534;2024-02-26T14:09:18;9.57;;;5.15;;
62052;SDS011;48300;52.902;6.534;2024-02-26T14:11:47;9.57;;;5.05;;
62052;SDS011;48300;52.902;6.534;2024-02-26T14:14:13;10.88;;;5.53;;
62052;SDS011;48300;52.902;6.534;2024-02-26T14:16:40;14.75;;;8.82;;
62052;SDS011;48300;52.902;6.534;2024-02-26T14:19:06;12.20;;;6.45;;
62052;SDS011;48300;52.902;6.534;2024-02-26T14:21:32;10.85;;;5.85;;
62052;SDS011;48300;52.902;6.534;2024-02-26T14:23:58;10.57;;;5.32;;
62052;SDS011;48300;52.902;6.534;2024-02-26T14:26:24;11.63;;;5.47;;
62052;SDS011;48300;52.902;6.534;2024-02-26T14:28:52;12.25;;;5.57;;
62052;SDS011;48300;52.902;6.534;2024-02-26T14:31:18;14.13;;;5.88;;
62052;SDS011;48300;52.902;6.534;2024-02-26T14:33:44;16.08;;;7.85;;
62052;SDS011;48300;52.902;6.534;2024-02-26T14:36:10;11.18;;;5.53;;
62052;SDS011;48300;52.902;6.534;2024-02-26T14:38:36;13.65;;;7.10;;
62052;SDS011;48300;52.902;6.534;2024-02-26T14:41:04;14.00;;;7.35;;
62052;SDS011;48300;52.902;6.534;2024-02-26T14:43:30;15.13;;;8.43;;
62052;SDS011;48300;52.902;6.534;2024-02-26T14:45:57;14.85;;;6.85;;